Terminal Aerodrome Forecast
Issued by NWS Louisville, KY

Home | Current Version | Previous Version | Text Only | Print | Product List | Glossary On
Versions: 1 2 3 4 5 6 7 8 9 10 11 12 13 14 15 16 17 18 19
000
FTUS43 KLMK 160900 AAB
TAFBWG
TAF AMD
KBWG 160914Z 1609/1706 24010KT P6SM VCSH SCT021 BKN045
     FM161200 24012G20KT P6SM BKN025
     FM162300 27008KT P6SM BKN021=

USA.gov is the U.S. government's official web portal to all federal, state and local government web resources and services.